Terminal Aerodrome Forecast
Issued by NWS

Home | Current Version | Previous Version | Text Only | Print | Product List | Glossary On
Versions: 1 2 3 4 5 6 7 8 9 10 11 12 13 14
000
FTUS44 KEPZ 271100
TAFLRU
TAF
KLRU 271120Z 2712/2812 04005KT P6SM SCT050 BKN120
     FM271900 25010KT P6SM VCTS SCT050CB BKN100
      TEMPO 2721/2801 VRB25G40KT 2SM TSRA BKN040CB
     FM280200 31006KT P6SM SCT100=

USA.gov is the U.S. government's official web portal to all federal, state and local government web resources and services.